sensor_id;sensor_type;location;lat;lon;timestamp;temperature;humidity
72576;DHT22;60613;48.658;2.328;2023-05-10T09:19:29;21.30;52.20
72576;DHT22;60613;48.658;2.328;2023-05-10T09:21:55;21.20;52.30
72576;DHT22;60613;48.658;2.328;2023-05-10T09:24:25;21.10;52.30
72576;DHT22;60613;48.658;2.328;2023-05-10T09:26:51;21.10;52.20
72576;DHT22;60613;48.658;2.328;2023-05-10T09:29:16;21.20;52.10
72576;DHT22;60613;48.658;2.328;2023-05-10T09:31:48;21.20;51.90
72576;DHT22;60613;48.658;2.328;2023-05-10T09:34:18;21.20;52.10
72576;DHT22;60613;48.658;2.328;2023-05-10T09:36:55;21.20;51.70
72576;DHT22;60613;48.658;2.328;2023-05-10T09:39:30;21.20;51.70
72576;DHT22;60613;48.658;2.328;2023-05-10T09:41:56;21.20;52.30
72576;DHT22;60613;48.658;2.328;2023-05-10T09:44:22;21.20;52.00
72576;DHT22;60613;48.658;2.328;2023-05-10T09:46:49;21.20;51.60
72576;DHT22;60613;48.658;2.328;2023-05-10T09:49:16;21.30;51.80
72576;DHT22;60613;48.658;2.328;2023-05-10T09:51:41;21.30;51.80
72576;DHT22;60613;48.658;2.328;2023-05-10T09:54:12;21.30;51.50
72576;DHT22;60613;48.658;2.328;2023-05-10T09:56:38;21.30;51.50
72576;DHT22;60613;48.658;2.328;2023-05-10T09:59:06;21.30;51.60
72576;DHT22;60613;48.658;2.328;2023-05-10T10:01:33;21.30;51.60
72576;DHT22;60613;48.658;2.328;2023-05-10T10:03:58;21.30;51.60
72576;DHT22;60613;48.658;2.328;2023-05-10T10:06:24;21.30;51.60
72576;DHT22;60613;48.658;2.328;2023-05-10T10:08:51;21.30;51.80
72576;DHT22;60613;48.658;2.328;2023-05-10T10:11:17;21.30;51.50
72576;DHT22;60613;48.658;2.328;2023-05-10T10:13:42;21.30;51.50
72576;DHT22;60613;48.658;2.328;2023-05-10T10:16:08;21.30;51.60
72576;DHT22;60613;48.658;2.328;2023-05-10T10:18:36;21.30;51.60
72576;DHT22;60613;48.658;2.328;2023-05-10T10:21:07;21.30;51.50
72576;DHT22;60613;48.658;2.328;2023-05-10T10:23:35;21.40;51.60
72576;DHT22;60613;48.658;2.328;2023-05-10T10:26:02;21.30;52.80
72576;DHT22;60613;48.658;2.328;2023-05-10T10:28:48;21.30;51.80
72576;DHT22;60613;48.658;2.328;2023-05-10T10:31:23;21.30;51.80
72576;DHT22;60613;48.658;2.328;2023-05-10T10:34:03;21.30;52.10
72576;DHT22;60613;48.658;2.328;2023-05-10T10:36:30;21.20;52.20
72576;DHT22;60613;48.658;2.328;2023-05-10T10:38:59;21.20;51.90
72576;DHT22;60613;48.658;2.328;2023-05-10T10:41:33;21.30;51.70
72576;DHT22;60613;48.658;2.328;2023-05-10T10:44:24;21.20;51.80
72576;DHT22;60613;48.658;2.328;2023-05-10T10:49:42;21.20;51.70
72576;DHT22;60613;48.658;2.328;2023-05-10T10:52:42;21.20;51.70
72576;DHT22;60613;48.658;2.328;2023-05-10T11:00:22;21.30;51.50
72576;DHT22;60613;48.658;2.328;2023-05-10T11:05:48;21.20;51.70
72576;DHT22;60613;48.658;2.328;2023-05-10T11:08:28;21.30;51.80
72576;DHT22;60613;48.658;2.328;2023-05-10T11:15:58;21.30;51.40
72576;DHT22;60613;48.658;2.328;2023-05-10T11:18:26;21.30;51.40
72576;DHT22;60613;48.658;2.328;2023-05-10T11:21:00;21.30;51.40
72576;DHT22;60613;48.658;2.328;2023-05-10T11:26:09;21.40;51.30
72576;DHT22;60613;48.658;2.328;2023-05-10T11:28:46;21.40;51.00
72576;DHT22;60613;48.658;2.328;2023-05-10T11:31:16;21.40;52.10
72576;DHT22;60613;48.658;2.328;2023-05-10T11:33:54;21.40;51.00
72576;DHT22;60613;48.658;2.328;2023-05-10T11:36:25;21.40;50.90
72576;DHT22;60613;48.658;2.328;2023-05-10T11:38:52;21.40;50.80
72576;DHT22;60613;48.658;2.328;2023-05-10T11:41:18;21.40;50.90
72576;DHT22;60613;48.658;2.328;2023-05-10T11:43:49;21.40;50.80
72576;DHT22;60613;48.658;2.328;2023-05-10T11:46:15;21.40;50.70
72576;DHT22;60613;48.658;2.328;2023-05-10T11:48:42;21.40;50.50
72576;DHT22;60613;48.658;2.328;2023-05-10T11:51:09;21.40;50.50
72576;DHT22;60613;48.658;2.328;2023-05-10T11:53:35;21.40;50.50
72576;DHT22;60613;48.658;2.328;2023-05-10T11:56:09;21.50;50.50
72576;DHT22;60613;48.658;2.328;2023-05-10T11:58:36;21.50;50.30
72576;DHT22;60613;48.658;2.328;2023-05-10T12:01:03;21.50;50.30
72576;DHT22;60613;48.658;2.328;2023-05-10T12:03:30;21.50;50.30
72576;DHT22;60613;48.658;2.328;2023-05-10T12:05:57;21.50;50.30
72576;DHT22;60613;48.658;2.328;2023-05-10T12:08:26;21.50;50.40
72576;DHT22;60613;48.658;2.328;2023-05-10T12:11:03;21.50;50.60
72576;DHT22;60613;48.658;2.328;2023-05-10T12:13:29;21.40;50.70
72576;DHT22;60613;48.658;2.328;2023-05-10T12:15:58;21.40;51.20
72576;DHT22;60613;48.658;2.328;2023-05-10T12:18:24;21.40;51.20
72576;DHT22;60613;48.658;2.328;2023-05-10T12:20:54;21.50;51.30
72576;DHT22;60613;48.658;2.328;2023-05-10T12:23:20;21.40;51.30
72576;DHT22;60613;48.658;2.328;2023-05-10T12:25:46;21.50;51.10
72576;DHT22;60613;48.658;2.328;2023-05-10T12:28:12;21.50;50.50
72576;DHT22;60613;48.658;2.328;2023-05-10T12:30:38;21.70;50.70
72576;DHT22;60613;48.658;2.328;2023-05-10T12:33:11;21.80;50.40
72576;DHT22;60613;48.658;2.328;2023-05-10T12:38:26;21.80;50.20
72576;DHT22;60613;48.658;2.328;2023-05-10T12:40:55;21.80;50.10
72576;DHT22;60613;48.658;2.328;2023-05-10T12:43:21;21.80;50.60
72576;DHT22;60613;48.658;2.328;2023-05-10T12:45:47;21.80;50.30
72576;DHT22;60613;48.658;2.328;2023-05-10T12:48:14;21.90;50.00
72576;DHT22;60613;48.658;2.328;2023-05-10T12:50:40;22.10;49.80
72576;DHT22;60613;48.658;2.328;2023-05-10T12:53:06;22.10;49.60
72576;DHT22;60613;48.658;2.328;2023-05-10T12:55:31;22.00;49.80
72576;DHT22;60613;48.658;2.328;2023-05-10T12:57:57;22.00;50.10
72576;DHT22;60613;48.658;2.328;2023-05-10T13:00:23;21.90;50.00
72576;DHT22;60613;48.658;2.328;2023-05-10T13:02:48;21.80;50.30
72576;DHT22;60613;48.658;2.328;2023-05-10T13:05:14;21.70;50.50
72576;DHT22;60613;48.658;2.328;2023-05-10T13:07:40;21.80;50.70
72576;DHT22;60613;48.658;2.328;2023-05-10T13:10:06;21.70;50.60
72576;DHT22;60613;48.658;2.328;2023-05-10T13:12:32;21.70;50.60
72576;DHT22;60613;48.658;2.328;2023-05-10T13:14:58;21.70;50.60
72576;DHT22;60613;48.658;2.328;2023-05-10T13:17:25;21.60;50.60
72576;DHT22;60613;48.658;2.328;2023-05-10T13:19:51;21.70;50.60
72576;DHT22;60613;48.658;2.328;2023-05-10T13:22:16;21.60;50.60
72576;DHT22;60613;48.658;2.328;2023-05-10T13:24:42;21.70;50.60
72576;DHT22;60613;48.658;2.328;2023-05-10T13:27:08;21.60;50.70
72576;DHT22;60613;48.658;2.328;2023-05-10T13:29:33;21.60;50.70
72576;DHT22;60613;48.658;2.328;2023-05-10T13:31:59;21.70;50.70
72576;DHT22;60613;48.658;2.328;2023-05-10T13:34:25;21.70;50.50
72576;DHT22;60613;48.658;2.328;2023-05-10T13:36:50;21.70;50.30
72576;DHT22;60613;48.658;2.328;2023-05-10T13:39:16;21.70;50.60
72576;DHT22;60613;48.658;2.328;2023-05-10T13:41:42;21.70;50.50
72576;DHT22;60613;48.658;2.328;2023-05-10T13:44:08;21.60;50.60
72576;DHT22;60613;48.658;2.328;2023-05-10T13:46:33;21.70;50.60
72576;DHT22;60613;48.658;2.328;2023-05-10T13:48:59;21.70;50.60
72576;DHT22;60613;48.658;2.328;2023-05-10T13:51:25;21.70;50.60
72576;DHT22;60613;48.658;2.328;2023-05-10T13:53:50;21.70;50.40
72576;DHT22;60613;48.658;2.328;2023-05-10T13:56:16;21.70;50.40
72576;DHT22;60613;48.658;2.328;2023-05-10T13:58:41;21.70;50.40
72576;DHT22;60613;48.658;2.328;2023-05-10T14:01:07;21.70;50.40
72576;DHT22;60613;48.658;2.328;2023-05-10T14:03:33;21.70;50.50
72576;DHT22;60613;48.658;2.328;2023-05-10T14:05:58;21.80;50.30
72576;DHT22;60613;48.658;2.328;2023-05-10T14:08:24;21.70;50.20
72576;DHT22;60613;48.658;2.328;2023-05-10T14:10:52;21.80;50.30
72576;DHT22;60613;48.658;2.328;2023-05-10T14:13:18;21.70;50.10
72576;DHT22;60613;48.658;2.328;2023-05-10T14:15:43;21.70;50.00
72576;DHT22;60613;48.658;2.328;2023-05-10T14:18:09;21.80;50.10
72576;DHT22;60613;48.658;2.328;2023-05-10T14:20:35;21.80;50.00
72576;DHT22;60613;48.658;2.328;2023-05-10T14:23:00;21.80;50.00
72576;DHT22;60613;48.658;2.328;2023-05-10T14:25:26;21.80;50.10
72576;DHT22;60613;48.658;2.328;2023-05-10T14:27:52;21.80;50.20
72576;DHT22;60613;48.658;2.328;2023-05-10T14:30:20;21.80;50.10
72576;DHT22;60613;48.658;2.328;2023-05-10T14:32:45;21.80;50.10
72576;DHT22;60613;48.658;2.328;2023-05-10T14:35:11;21.80;50.00
72576;DHT22;60613;48.658;2.328;2023-05-10T14:37:38;21.70;50.10
72576;DHT22;60613;48.658;2.328;2023-05-10T14:40:04;21.70;50.30
72576;DHT22;60613;48.658;2.328;2023-05-10T14:42:30;21.80;50.30
72576;DHT22;60613;48.658;2.328;2023-05-10T14:44:56;21.80;50.20
72576;DHT22;60613;48.658;2.328;2023-05-10T14:47:22;21.70;50.10
72576;DHT22;60613;48.658;2.328;2023-05-10T14:49:47;21.80;50.20
72576;DHT22;60613;48.658;2.328;2023-05-10T14:52:13;21.80;50.20
72576;DHT22;60613;48.658;2.328;2023-05-10T14:54:39;21.80;50.20
72576;DHT22;60613;48.658;2.328;2023-05-10T14:57:06;21.80;50.20
72576;DHT22;60613;48.658;2.328;2023-05-10T14:59:32;21.80;50.10
72576;DHT22;60613;48.658;2.328;2023-05-10T15:01:58;21.80;50.10
72576;DHT22;60613;48.658;2.328;2023-05-10T15:04:24;21.80;50.10
72576;DHT22;60613;48.658;2.328;2023-05-10T15:06:49;21.80;50.10
72576;DHT22;60613;48.658;2.328;2023-05-10T15:09:15;21.80;50.10
72576;DHT22;60613;48.658;2.328;2023-05-10T15:11:44;21.80;50.10
72576;DHT22;60613;48.658;2.328;2023-05-10T15:14:10;21.80;50.10
72576;DHT22;60613;48.658;2.328;2023-05-10T15:16:35;21.80;50.10
72576;DHT22;60613;48.658;2.328;2023-05-10T15:19:01;21.80;50.10
72576;DHT22;60613;48.658;2.328;2023-05-10T15:21:26;21.70;50.10
72576;DHT22;60613;48.658;2.328;2023-05-10T15:23:52;21.80;51.40
72576;DHT22;60613;48.658;2.328;2023-05-10T15:26:18;21.80;50.30
72576;DHT22;60613;48.658;2.328;2023-05-10T15:28:44;21.70;50.20
72576;DHT22;60613;48.658;2.328;2023-05-10T15:31:09;21.70;50.30
72576;DHT22;60613;48.658;2.328;2023-05-10T15:33:37;21.80;50.30
72576;DHT22;60613;48.658;2.328;2023-05-10T15:36:03;21.70;50.20
72576;DHT22;60613;48.658;2.328;2023-05-10T15:38:29;21.80;50.30
72576;DHT22;60613;48.658;2.328;2023-05-10T15:40:56;21.80;50.30
72576;DHT22;60613;48.658;2.328;2023-05-10T15:43:23;21.80;50.20
72576;DHT22;60613;48.658;2.328;2023-05-10T15:45:48;21.80;50.20
72576;DHT22;60613;48.658;2.328;2023-05-10T15:48:14;21.80;50.20
72576;DHT22;60613;48.658;2.328;2023-05-10T15:50:39;21.80;50.10
72576;DHT22;60613;48.658;2.328;2023-05-10T15:53:05;21.80;50.10
72576;DHT22;60613;48.658;2.328;2023-05-10T15:55:31;21.80;50.10
72576;DHT22;60613;48.658;2.328;2023-05-10T15:57:56;21.80;50.00
72576;DHT22;60613;48.658;2.328;2023-05-10T16:00:22;21.80;50.10
72576;DHT22;60613;48.658;2.328;2023-05-10T16:02:48;21.80;49.90
72576;DHT22;60613;48.658;2.328;2023-05-10T16:05:16;21.80;50.00
72576;DHT22;60613;48.658;2.328;2023-05-10T16:07:41;21.80;50.10
72576;DHT22;60613;48.658;2.328;2023-05-10T16:10:09;21.80;50.10
72576;DHT22;60613;48.658;2.328;2023-05-10T16:12:35;21.80;50.00
72576;DHT22;60613;48.658;2.328;2023-05-10T16:15:00;21.80;50.10
72576;DHT22;60613;48.658;2.328;2023-05-10T16:17:26;21.80;50.10
72576;DHT22;60613;48.658;2.328;2023-05-10T16:19:51;21.80;50.20
72576;DHT22;60613;48.658;2.328;2023-05-10T16:22:17;21.80;50.10
72576;DHT22;60613;48.658;2.328;2023-05-10T16:24:43;21.90;50.00
72576;DHT22;60613;48.658;2.328;2023-05-10T16:27:08;21.80;50.00
72576;DHT22;60613;48.658;2.328;2023-05-10T16:29:34;21.80;50.10
72576;DHT22;60613;48.658;2.328;2023-05-10T16:32:00;21.90;50.00
72576;DHT22;60613;48.658;2.328;2023-05-10T16:34:26;21.90;50.00
72576;DHT22;60613;48.658;2.328;2023-05-10T16:36:51;21.90;49.80
72576;DHT22;60613;48.658;2.328;2023-05-10T16:39:17;21.90;50.00
72576;DHT22;60613;48.658;2.328;2023-05-10T16:41:42;22.00;49.70
72576;DHT22;60613;48.658;2.328;2023-05-10T16:44:09;22.00;49.50
72576;DHT22;60613;48.658;2.328;2023-05-10T16:46:34;22.00;49.60
72576;DHT22;60613;48.658;2.328;2023-05-10T16:49:00;21.90;49.70
72576;DHT22;60613;48.658;2.328;2023-05-10T16:51:26;21.90;50.00
72576;DHT22;60613;48.658;2.328;2023-05-10T16:53:52;21.90;49.90
72576;DHT22;60613;48.658;2.328;2023-05-10T16:56:18;21.90;49.80
72576;DHT22;60613;48.658;2.328;2023-05-10T16:58:45;21.90;49.90
72576;DHT22;60613;48.658;2.328;2023-05-10T17:01:14;21.90;50.00
72576;DHT22;60613;48.658;2.328;2023-05-10T17:03:40;21.90;50.00
72576;DHT22;60613;48.658;2.328;2023-05-10T17:06:06;21.90;50.00
72576;DHT22;60613;48.658;2.328;2023-05-10T17:08:32;21.90;49.90
72576;DHT22;60613;48.658;2.328;2023-05-10T17:11:00;21.90;49.90
72576;DHT22;60613;48.658;2.328;2023-05-10T17:13:27;21.90;49.90
72576;DHT22;60613;48.658;2.328;2023-05-10T17:15:52;22.00;49.80
72576;DHT22;60613;48.658;2.328;2023-05-10T17:18:18;22.00;49.70
72576;DHT22;60613;48.658;2.328;2023-05-10T17:20:44;22.00;49.70
72576;DHT22;60613;48.658;2.328;2023-05-10T17:23:10;22.00;49.70
72576;DHT22;60613;48.658;2.328;2023-05-10T17:25:35;22.00;49.70
72576;DHT22;60613;48.658;2.328;2023-05-10T17:28:02;22.00;49.70
72576;DHT22;60613;48.658;2.328;2023-05-10T17:30:28;22.00;49.60
72576;DHT22;60613;48.658;2.328;2023-05-10T17:33:00;22.00;49.70
72576;DHT22;60613;48.658;2.328;2023-05-10T17:35:26;22.00;49.60
72576;DHT22;60613;48.658;2.328;2023-05-10T17:37:52;22.00;49.90
72576;DHT22;60613;48.658;2.328;2023-05-10T17:40:17;22.00;49.80
72576;DHT22;60613;48.658;2.328;2023-05-10T17:42:43;22.00;49.70
72576;DHT22;60613;48.658;2.328;2023-05-10T17:45:09;22.10;49.60
72576;DHT22;60613;48.658;2.328;2023-05-10T17:47:35;22.10;49.40
72576;DHT22;60613;48.658;2.328;2023-05-10T17:50:00;22.20;49.20
72576;DHT22;60613;48.658;2.328;2023-05-10T17:52:26;22.30;49.20
72576;DHT22;60613;48.658;2.328;2023-05-10T17:54:53;22.30;49.60
72576;DHT22;60613;48.658;2.328;2023-05-10T17:57:19;22.40;49.20
72576;DHT22;60613;48.658;2.328;2023-05-10T17:59:45;22.40;49.80
72576;DHT22;60613;48.658;2.328;2023-05-10T18:02:12;22.30;50.10
72576;DHT22;60613;48.658;2.328;2023-05-10T18:04:41;22.20;50.60
72576;DHT22;60613;48.658;2.328;2023-05-10T18:07:08;22.10;50.60
72576;DHT22;60613;48.658;2.328;2023-05-10T18:09:34;22.20;50.70
72576;DHT22;60613;48.658;2.328;2023-05-10T18:12:03;22.20;50.80
72576;DHT22;60613;48.658;2.328;2023-05-10T18:14:28;22.20;50.40
72576;DHT22;60613;48.658;2.328;2023-05-10T18:16:54;22.20;50.40
72576;DHT22;60613;48.658;2.328;2023-05-10T18:19:20;22.20;50.10
72576;DHT22;60613;48.658;2.328;2023-05-10T18:21:50;22.20;50.30
72576;DHT22;60613;48.658;2.328;2023-05-10T18:24:17;22.20;50.30
72576;DHT22;60613;48.658;2.328;2023-05-10T18:26:43;22.20;50.20
72576;DHT22;60613;48.658;2.328;2023-05-10T18:29:09;22.30;50.40
72576;DHT22;60613;48.658;2.328;2023-05-10T18:31:34;22.20;50.60
72576;DHT22;60613;48.658;2.328;2023-05-10T18:34:00;22.20;50.80
72576;DHT22;60613;48.658;2.328;2023-05-10T18:36:25;22.30;50.60
72576;DHT22;60613;48.658;2.328;2023-05-10T18:38:53;22.30;50.50
72576;DHT22;60613;48.658;2.328;2023-05-10T18:41:18;22.20;50.60
72576;DHT22;60613;48.658;2.328;2023-05-10T18:43:45;22.30;51.50
72576;DHT22;60613;48.658;2.328;2023-05-10T18:46:13;22.30;50.50
72576;DHT22;60613;48.658;2.328;2023-05-10T18:48:39;22.40;50.70
72576;DHT22;60613;48.658;2.328;2023-05-10T18:51:05;22.30;50.70
72576;DHT22;60613;48.658;2.328;2023-05-10T18:53:31;22.20;50.80
72576;DHT22;60613;48.658;2.328;2023-05-10T18:55:57;22.20;50.90
72576;DHT22;60613;48.658;2.328;2023-05-10T18:58:27;22.20;52.10
